Time;durP1;ratioP1;P1;durP2;ratioP2;P2;SDS_P1;SDS_P2;PMS_P1;PMS_P2;Temp;Humidity;BMP_temperature;BMP_pressure;BME280_temperature;BME280_humidity;BME280_pressure;Samples;Min_cycle;Max_cycle;Signal;HPM_P1;HPM_P2
2021/07/31 00:00:15;;;;;;;;;;;;;;;24.95;65.52;100182.88;5018510;28;1975;-43
2021/07/31 00:02:41;;;;;;;;;;;;;;;24.98;65.96;100177.09;5020050;28;2207;-42
2021/07/31 00:05:08;;;;;;;;;;;;;;;25.00;66.39;100172.31;5016025;28;1674;-43
2021/07/31 00:07:36;;;;;;;;;;;;;;;25.00;65.38;100183.13;5022127;28;1952;-43
2021/07/31 00:10:02;;;;;;;;;;;;;;;24.97;66.11;100171.88;5021472;28;1742;-42
2021/07/31 00:12:29;;;;;;;;;;;;;;;25.03;65.71;100195.47;5028272;28;1768;-43
2021/07/31 00:14:55;;;;;;;;;;;;;;;25.01;66.11;100184.84;5023943;28;1862;-43
2021/07/31 00:17:22;;;;;;;;;;;;;;;25.01;65.93;100176.72;5020105;28;1752;-43
2021/07/31 00:19:48;;;;;;;;;;;;;;;25.02;65.45;100180.25;5025294;28;1136;-43
2021/07/31 00:22:15;;;;;;;;;;;;;;;24.99;65.45;100181.47;5016666;28;1906;-42
2021/07/31 00:24:42;;;;;;;;;;;;;;;25.03;65.83;100173.84;5029184;28;1358;-43
2021/07/31 00:27:09;;;;;;;;;;;;;;;25.02;65.05;100180.25;5027522;28;1764;-42
2021/07/31 00:29:35;;;;;;;;;;;;;;;24.90;64.47;100181.78;5018627;28;1796;-42
2021/07/31 00:32:02;;;;;;;;;;;;;;;24.91;66.12;100170.78;5020961;28;1758;-43
2021/07/31 00:34:28;;;;;;;;;;;;;;;24.89;65.37;100170.13;5015130;28;1879;-43
2021/07/31 00:36:55;;;;;;;;;;;;;;;24.95;65.10;100168.53;5023626;28;1784;-42
2021/07/31 00:39:21;;;;;;;;;;;;;;;24.93;64.94;100171.41;5021712;28;1825;-44
2021/07/31 00:41:49;;;;;;;;;;;;;;;24.88;64.70;100176.53;5026413;28;1910;-42
2021/07/31 00:44:16;;;;;;;;;;;;;;;24.88;65.52;100173.00;5021198;28;1886;-43
2021/07/31 00:46:42;;;;;;;;;;;;;;;24.88;64.84;100183.84;5019483;28;1815;-42
2021/07/31 00:49:09;;;;;;;;;;;;;;;24.93;65.05;100181.38;5023167;28;1611;-42
2021/07/31 00:51:36;;;;;;;;;;;;;;;24.91;64.43;100176.19;5026524;28;1704;-43
2021/07/31 00:54:02;;;;;;;;;;;;;;;24.86;65.51;100186.72;5021007;28;1364;-42
2021/07/31 00:56:29;;;;;;;;;;;;;;;24.86;64.85;100170.50;5032163;28;1843;-43
2021/07/31 00:58:57;;;;;;;;;;;;;;;24.89;65.37;100164.72;5023446;28;1043;-42
2021/07/31 01:01:23;;;;;;;;;;;;;;;24.91;64.34;100161.78;5024600;28;1991;-42
2021/07/31 01:03:50;;;;;;;;;;;;;;;24.98;65.19;100152.75;5014553;28;1075;-42
2021/07/31 01:06:16;;;;;;;;;;;;;;;24.96;64.92;100162.91;5025810;28;1813;-43
2021/07/31 01:08:43;;;;;;;;;;;;;;;24.92;64.94;100168.91;5023270;28;1698;-43
2021/07/31 01:11:09;;;;;;;;;;;;;;;24.95;65.84;100161.25;5019358;28;1729;-42
2021/07/31 01:13:36;;;;;;;;;;;;;;;24.95;64.82;100158.53;5023579;28;1772;-43
2021/07/31 01:16:06;;;;;;;;;;;;;;;24.68;65.39;100170.06;5022646;28;1759;-43
2021/07/31 01:18:33;;;;;;;;;;;;;;;24.68;65.99;100188.97;5021821;28;1733;-43
2021/07/31 01:20:59;;;;;;;;;;;;;;;24.80;66.42;100171.25;5017761;28;1977;-43
2021/07/31 01:23:27;;;;;;;;;;;;;;;24.83;66.20;100175.44;5020663;28;1816;-43
2021/07/31 01:25:53;;;;;;;;;;;;;;;24.71;65.26;100156.13;5022480;28;1558;-42
2021/07/31 01:28:20;;;;;;;;;;;;;;;24.77;66.55;100156.25;5023630;28;1754;-43
2021/07/31 01:30:46;;;;;;;;;;;;;;;24.76;65.50;100175.34;5018679;28;1861;-42
2021/07/31 01:33:13;;;;;;;;;;;;;;;24.74;65.36;100153.06;5013876;28;1689;-42
2021/07/31 01:35:39;;;;;;;;;;;;;;;24.84;66.43;100156.31;5020505;28;1864;-43
2021/07/31 01:38:06;;;;;;;;;;;;;;;24.83;65.63;100149.25;5020825;28;1771;-43
2021/07/31 01:40:34;;;;;;;;;;;;;;;24.79;65.98;100151.47;5020495;28;1738;-43
2021/07/31 01:43:00;;;;;;;;;;;;;;;24.80;65.78;100133.38;5023679;28;2033;-42
2021/07/31 01:45:30;;;;;;;;;;;;;;;24.88;66.49;100152.22;5019237;28;2992;-43
2021/07/31 01:47:56;;;;;;;;;;;;;;;24.80;65.71;100146.91;5027004;28;1756;-43
2021/07/31 01:50:23;;;;;;;;;;;;;;;24.70;65.52;100152.59;5021541;28;1006;-42
2021/07/31 01:52:49;;;;;;;;;;;;;;;24.50;66.15;100165.00;5018718;28;1824;-43
2021/07/31 01:55:16;;;;;;;;;;;;;;;24.34;66.97;100164.13;5020539;28;1656;-43
2021/07/31 01:57:44;;;;;;;;;;;;;;;24.17;66.38;100165.31;5019535;28;1638;-42
2021/07/31 02:02:46;;;;;;;;;;;;;;;24.18;67.05;100173.25;5049898;23;1981;-40
2021/07/31 02:07:58;;;;;;;;;;;;;;;24.16;66.76;100174.47;5011251;28;2343;-40
2021/07/31 02:10:26;;;;;;;;;;;;;;;24.30;66.61;100165.53;5004099;28;1775;-40
2021/07/31 02:12:55;;;;;;;;;;;;;;;24.41;65.67;100161.53;4994639;28;1693;-40
2021/07/31 02:15:25;;;;;;;;;;;;;;;24.47;65.88;100171.63;4996074;28;1757;-40
2021/07/31 02:17:51;;;;;;;;;;;;;;;24.54;65.23;100152.81;5011636;28;1576;-39
2021/07/31 02:20:21;;;;;;;;;;;;;;;24.57;65.33;100166.78;5012533;28;1005;-40
2021/07/31 02:22:48;;;;;;;;;;;;;;;24.53;65.73;100170.91;5003427;28;1910;-40
2021/07/31 02:25:19;;;;;;;;;;;;;;;24.40;66.42;100167.97;5010640;28;1544;-40
2021/07/31 02:27:53;;;;;;;;;;;;;;;24.43;65.82;100175.69;5010752;28;1824;-40
2021/07/31 02:30:26;;;;;;;;;;;;;;;24.42;66.03;100174.84;5011159;28;1752;-40
2021/07/31 02:32:56;;;;;;;;;;;;;;;24.29;66.28;100173.81;5009494;28;1771;-39
2021/07/31 02:35:25;;;;;;;;;;;;;;;24.40;65.82;100181.47;5011728;28;1830;-40
2021/07/31 02:37:55;;;;;;;;;;;;;;;24.47;65.53;100158.09;5010393;28;1965;-40
2021/07/31 02:40:35;;;;;;;;;;;;;;;24.38;66.46;100172.72;5000555;28;1850;-40
2021/07/31 02:43:02;;;;;;;;;;;;;;;24.30;66.20;100170.94;5010483;28;1898;-40
2021/07/31 02:45:41;;;;;;;;;;;;;;;24.34;66.79;100179.53;5008611;28;1716;-39
2021/07/31 02:48:08;;;;;;;;;;;;;;;24.15;66.99;100181.75;5001847;28;1798;-40
2021/07/31 02:50:36;;;;;;;;;;;;;;;24.13;66.48;100180.22;4996681;28;1003;-40
2021/07/31 02:53:03;;;;;;;;;;;;;;;24.15;66.75;100180.88;5007122;28;1737;-41
2021/07/31 02:55:31;;;;;;;;;;;;;;;24.25;65.84;100172.50;5014135;28;1615;-40
2021/07/31 02:58:01;;;;;;;;;;;;;;;24.44;66.42;100163.88;5015105;28;1576;-40
2021/07/31 03:00:30;;;;;;;;;;;;;;;24.30;66.20;100183.63;5015063;28;1802;-40
2021/07/31 03:03:03;;;;;;;;;;;;;;;24.10;67.09;100176.03;5003681;28;1906;-40
2021/07/31 03:05:33;;;;;;;;;;;;;;;24.04;67.16;100173.25;5008333;28;1838;-40
2021/07/31 03:08:00;;;;;;;;;;;;;;;24.00;67.44;100170.06;5009966;28;1684;-40
2021/07/31 03:10:28;;;;;;;;;;;;;;;23.94;66.99;100168.09;5014808;28;1918;-40
2021/07/31 03:12:58;;;;;;;;;;;;;;;23.98;67.12;100172.09;5015378;28;1006;-41
2021/07/31 03:15:28;;;;;;;;;;;;;;;24.08;66.62;100182.66;5014774;28;1784;-40
2021/07/31 03:17:56;;;;;;;;;;;;;;;24.19;65.95;100174.94;5005617;28;2101;-40
2021/07/31 03:20:35;;;;;;;;;;;;;;;24.06;66.65;100180.13;5001601;28;1757;-40
2021/07/31 03:23:02;;;;;;;;;;;;;;;23.97;66.37;100181.22;5009275;28;1973;-40
2021/07/31 03:25:32;;;;;;;;;;;;;;;23.89;66.78;100192.94;5014709;28;1573;-41
2021/07/31 03:27:59;;;;;;;;;;;;;;;23.93;67.05;100198.81;5007614;28;1621;-40
2021/07/31 03:30:27;;;;;;;;;;;;;;;23.94;66.95;100214.00;5014132;28;1765;-40
2021/07/31 03:33:03;;;;;;;;;;;;;;;23.94;67.03;100209.44;5014418;28;1715;-39
2021/07/31 03:35:38;;;;;;;;;;;;;;;24.09;66.46;100205.94;5014295;28;1799;-40
2021/07/31 03:38:10;;;;;;;;;;;;;;;24.25;65.61;100204.94;5014438;28;1910;-40
2021/07/31 03:40:36;;;;;;;;;;;;;;;24.37;66.12;100214.25;5012132;28;1644;-40
2021/07/31 03:43:04;;;;;;;;;;;;;;;24.34;65.41;100199.28;5014280;28;2019;-40
2021/07/31 03:45:33;;;;;;;;;;;;;;;24.38;66.45;100218.66;5011022;28;1690;-40
2021/07/31 03:48:01;;;;;;;;;;;;;;;24.50;65.69;100219.91;5001465;28;1848;-40
2021/07/31 03:50:30;;;;;;;;;;;;;;;24.51;65.82;100224.31;5014457;28;1623;-40
2021/07/31 03:52:59;;;;;;;;;;;;;;;24.56;65.88;100235.38;5013529;28;1711;-40
2021/07/31 03:55:27;;;;;;;;;;;;;;;24.57;65.76;100228.97;5014648;28;1687;-40
2021/07/31 03:57:57;;;;;;;;;;;;;;;24.70;66.05;100243.69;5012746;28;1906;-39
2021/07/31 04:00:23;;;;;;;;;;;;;;;24.71;66.17;100223.72;5014294;28;1779;-40
2021/07/31 04:02:58;;;;;;;;;;;;;;;24.61;65.33;100232.13;5014155;28;1891;-40
2021/07/31 04:05:27;;;;;;;;;;;;;;;24.60;66.41;100231.28;5013834;28;1956;-39
2021/07/31 04:07:57;;;;;;;;;;;;;;;24.43;66.53;100227.03;5004564;28;2722;-42
2021/07/31 04:10:25;;;;;;;;;;;;;;;24.55;65.50;100231.03;5006979;28;1942;-43
2021/07/31 04:12:57;;;;;;;;;;;;;;;24.66;65.73;100228.88;5011889;28;1616;-42
2021/07/31 04:15:26;;;;;;;;;;;;;;;24.70;65.90;100216.66;5005053;28;1700;-42
2021/07/31 04:17:52;;;;;;;;;;;;;;;24.75;66.02;100222.34;5013641;28;1724;-42
2021/07/31 04:20:19;;;;;;;;;;;;;;;24.74;65.26;100224.22;5014100;28;1099;-40
2021/07/31 04:22:46;;;;;;;;;;;;;;;24.79;65.92;100235.31;5010408;28;1906;-40
2021/07/31 04:25:14;;;;;;;;;;;;;;;24.60;66.40;100235.88;5007117;28;1635;-40
2021/07/31 04:27:44;;;;;;;;;;;;;;;24.63;66.25;100235.50;5006914;28;1799;-40
2021/07/31 04:30:11;;;;;;;;;;;;;;;24.60;66.42;100231.28;5012522;28;1607;-40
2021/07/31 04:32:38;;;;;;;;;;;;;;;24.54;66.65;100240.16;5011478;28;2150;-41
2021/07/31 04:35:06;;;;;;;;;;;;;;;24.54;65.93;100234.75;5013455;28;1972;-40
2021/07/31 04:37:33;;;;;;;;;;;;;;;24.55;66.87;100233.72;5013035;28;1817;-40
2021/07/31 04:39:59;;;;;;;;;;;;;;;24.64;65.79;100242.56;5013299;28;1840;-40
2021/07/31 04:42:29;;;;;;;;;;;;;;;24.81;66.14;100233.25;5003511;28;1910;-40
2021/07/31 04:44:59;;;;;;;;;;;;;;;24.94;65.91;100254.22;5006813;28;1864;-41
2021/07/31 04:47:26;;;;;;;;;;;;;;;25.07;65.68;100242.75;5009579;28;1782;-43
2021/07/31 04:49:54;;;;;;;;;;;;;;;24.99;65.60;100241.00;5006404;28;1375;-42
2021/07/31 04:52:21;;;;;;;;;;;;;;;24.78;66.05;100249.84;5003156;28;2869;-42
2021/07/31 04:54:48;;;;;;;;;;;;;;;24.69;67.00;100250.13;4999669;28;1485;-42
2021/07/31 04:57:15;;;;;;;;;;;;;;;24.69;67.43;100260.94;5003583;28;1485;-43
2021/07/31 04:59:45;;;;;;;;;;;;;;;24.64;66.85;100255.25;5006863;28;1704;-40
2021/07/31 05:05:02;;;;;;;;;;;;;;;24.68;67.37;100259.28;5004629;28;2344;-41
2021/07/31 05:07:32;;;;;;;;;;;;;;;24.78;67.26;100260.66;5007408;28;1527;-40
2021/07/31 05:10:02;;;;;;;;;;;;;;;24.90;67.30;100260.22;5010074;28;1365;-40
2021/07/31 05:12:29;;;;;;;;;;;;;;;24.91;66.09;100246.50;5007076;28;1664;-39
2021/07/31 05:14:56;;;;;;;;;;;;;;;25.01;66.97;100255.16;5006245;28;1888;-41
2021/07/31 05:17:30;;;;;;;;;;;;;;;25.08;66.80;100251.72;5004814;28;1532;-40
2021/07/31 05:19:57;;;;;;;;;;;;;;;25.17;66.13;100269.53;5002546;28;1373;-40
2021/07/31 05:22:23;;;;;;;;;;;;;;;25.18;66.45;100254.97;5002482;28;1976;-40
2021/07/31 05:24:53;;;;;;;;;;;;;;;25.15;66.38;100253.47;5005037;28;1208;-40
2021/07/31 05:27:22;;;;;;;;;;;;;;;25.18;66.47;100258.50;5003725;28;1727;-40
2021/07/31 05:29:51;;;;;;;;;;;;;;;25.29;66.76;100264.50;5002910;28;1823;-40
2021/07/31 05:32:20;;;;;;;;;;;;;;;25.30;66.30;100247.22;5005702;28;2364;-40
2021/07/31 05:34:51;;;;;;;;;;;;;;;25.27;66.71;100259.28;5001369;28;1741;-40
2021/07/31 05:37:20;;;;;;;;;;;;;;;25.30;66.34;100263.47;5003317;28;2474;-41
2021/07/31 05:39:47;;;;;;;;;;;;;;;25.32;66.28;100262.22;5004185;28;1802;-40
2021/07/31 05:42:14;;;;;;;;;;;;;;;25.36;66.87;100258.13;4998754;28;1971;-41
2021/07/31 05:44:41;;;;;;;;;;;;;;;25.43;65.86;100251.94;5007326;28;1503;-40
2021/07/31 05:47:16;;;;;;;;;;;;;;;25.42;66.23;100259.22;5009411;28;1459;-40
2021/07/31 05:49:45;;;;;;;;;;;;;;;25.48;66.23;100271.16;5006286;28;1953;-42
2021/07/31 05:52:14;;;;;;;;;;;;;;;25.49;66.65;100262.88;4998990;28;1823;-40
2021/07/31 05:54:40;;;;;;;;;;;;;;;25.48;66.50;100257.63;5005095;28;1506;-40
2021/07/31 05:57:09;;;;;;;;;;;;;;;25.50;65.83;100258.28;5007560;28;1791;-40
2021/07/31 05:59:38;;;;;;;;;;;;;;;25.51;66.40;100259.97;4997998;28;1448;-40
2021/07/31 06:02:06;;;;;;;;;;;;;;;25.53;66.08;100269.56;5011132;28;1910;-40
2021/07/31 06:04:35;;;;;;;;;;;;;;;25.51;66.66;100254.56;5006836;28;1639;-40
2021/07/31 06:07:02;;;;;;;;;;;;;;;25.51;66.50;100255.38;4998095;28;1449;-40
2021/07/31 06:09:30;;;;;;;;;;;;;;;25.53;67.02;100258.75;4997795;28;1676;-40
2021/07/31 06:12:02;;;;;;;;;;;;;;;25.24;65.68;100275.88;5008026;28;1640;-40
2021/07/31 06:14:32;;;;;;;;;;;;;;;24.55;65.42;100268.88;4999827;28;1251;-39
2021/07/31 06:17:02;;;;;;;;;;;;;;;23.97;64.24;100275.75;4996832;28;1369;-42
2021/07/31 06:19:30;;;;;;;;;;;;;;;23.63;64.70;100271.56;5011242;28;1746;-42
2021/07/31 06:21:59;;;;;;;;;;;;;;;23.49;63.95;100277.72;5013158;28;1497;-42
2021/07/31 06:24:34;;;;;;;;;;;;;;;23.46;63.11;100275.34;5011822;28;1902;-42
2021/07/31 06:27:02;;;;;;;;;;;;;;;23.49;62.86;100261.53;5015540;28;1861;-42
2021/07/31 06:29:32;;;;;;;;;;;;;;;23.49;62.80;100280.41;5015068;28;1978;-39
2021/07/31 06:32:01;;;;;;;;;;;;;;;23.42;63.44;100259.53;5015097;28;1586;-39
2021/07/31 06:34:30;;;;;;;;;;;;;;;23.43;63.00;100265.75;5015187;28;1803;-40
2021/07/31 06:36:58;;;;;;;;;;;;;;;23.43;63.04;100260.38;5006424;28;2684;-41
2021/07/31 06:39:25;;;;;;;;;;;;;;;23.36;63.54;100262.09;5011141;28;1704;-42
2021/07/31 06:41:53;;;;;;;;;;;;;;;23.31;63.41;100277.97;4999989;28;1165;-42
2021/07/31 06:44:27;;;;;;;;;;;;;;;23.26;63.42;100273.13;5005409;28;1984;-42
2021/07/31 06:46:55;;;;;;;;;;;;;;;23.21;63.31;100259.31;5012268;28;1907;-41
2021/07/31 06:49:22;;;;;;;;;;;;;;;23.15;63.23;100268.09;5010669;28;1852;-42
2021/07/31 06:51:52;;;;;;;;;;;;;;;23.19;63.02;100274.81;5014073;28;1951;-41
2021/07/31 06:54:27;;;;;;;;;;;;;;;23.35;62.61;100269.34;5009434;28;1461;-42
2021/07/31 06:57:02;;;;;;;;;;;;;;;23.55;63.30;100268.91;5013184;28;1602;-42
2021/07/31 06:59:34;;;;;;;;;;;;;;;23.60;62.85;100261.13;5010630;28;1474;-42
2021/07/31 07:02:03;;;;;;;;;;;;;;;23.58;63.29;100257.78;5005906;28;1974;-42
2021/07/31 07:04:30;;;;;;;;;;;;;;;23.49;63.80;100261.53;5013307;28;1902;-42
2021/07/31 07:07:04;;;;;;;;;;;;;;;23.61;63.98;100265.50;5010990;28;1348;-42
2021/07/31 07:09:31;;;;;;;;;;;;;;;23.67;64.09;100266.66;5014340;28;1907;-42
2021/07/31 07:11:58;;;;;;;;;;;;;;;23.73;64.03;100261.34;5012867;28;1805;-42
2021/07/31 07:17:11;;;;;;;;;;;;;;;24.43;62.45;100251.38;5014650;28;2303;-40
2021/07/31 07:19:38;;;;;;;;;;;;;;;24.68;62.64;100261.97;5011202;28;2247;-40
2021/07/31 07:22:13;;;;;;;;;;;;;;;24.81;62.17;100254.91;5014338;28;1813;-40
2021/07/31 07:24:42;;;;;;;;;;;;;;;24.71;63.65;100261.59;5015083;28;1970;-40
2021/07/31 07:27:08;;;;;;;;;;;;;;;23.99;62.99;100255.66;5009258;28;1699;-39
2021/07/31 07:29:36;;;;;;;;;;;;;;;23.30;61.79;100252.88;5003191;28;2005;-40
2021/07/31 07:32:05;;;;;;;;;;;;;;;22.91;61.44;100247.44;5013650;28;1659;-39
2021/07/31 07:34:37;;;;;;;;;;;;;;;22.66;61.14;100244.81;5010276;28;1769;-40
2021/07/31 07:37:03;;;;;;;;;;;;;;;22.48;60.71;100263.84;5005194;28;1714;-39
2021/07/31 07:39:30;;;;;;;;;;;;;;;;;;5000778;28;1775;-40
2021/07/31 07:42:05;;;;;;;;;;;;;;;22.34;61.11;100259.16;5009104;28;1374;-40
2021/07/31 07:44:38;;;;;;;;;;;;;;;22.28;60.58;100263.38;5014409;28;1906;-39
2021/07/31 07:47:06;;;;;;;;;;;;;;;22.22;59.83;100262.19;4991520;28;2380;-39
2021/07/31 07:49:37;;;;;;;;;;;;;;;22.18;60.07;100252.78;5003085;28;1987;-39
2021/07/31 07:52:03;;;;;;;;;;;;;;;22.19;59.69;100254.44;4996103;28;1840;-39
2021/07/31 07:54:30;;;;;;;;;;;;;;;22.27;60.70;100259.00;5003441;28;1004;-40
2021/07/31 07:56:59;;;;;;;;;;;;;;;22.63;60.36;100259.47;5007126;28;1514;-39
2021/07/31 07:59:28;;;;;;;;;;;;;;;22.97;60.62;100260.22;5004528;28;1228;-39
2021/07/31 08:01:57;;;;;;;;;;;;;;;23.16;60.77;100259.00;5008578;28;1523;-39
2021/07/31 08:04:26;;;;;;;;;;;;;;;23.39;61.53;100257.19;5012517;28;1906;-40
2021/07/31 08:06:58;;;;;;;;;;;;;;;23.53;63.50;100252.88;5005709;28;1778;-40
2021/07/31 08:09:25;;;;;;;;;;;;;;;23.53;65.40;100254.75;5006059;28;1426;-40
2021/07/31 08:11:52;;;;;;;;;;;;;;;23.70;64.86;100250.94;5007420;28;1695;-39
2021/07/31 08:14:22;;;;;;;;;;;;;;;23.81;66.21;100255.97;5005383;28;2091;-40
2021/07/31 08:16:49;;;;;;;;;;;;;;;23.84;65.95;100248.53;5013488;28;1707;-41
2021/07/31 08:19:15;;;;;;;;;;;;;;;23.75;66.44;100253.91;5012385;28;1898;-39
2021/07/31 08:21:44;;;;;;;;;;;;;;;23.64;66.80;100262.44;5006463;28;1711;-40
2021/07/31 08:24:14;;;;;;;;;;;;;;;23.57;66.56;100242.56;5006495;28;1906;-40
2021/07/31 08:26:43;;;;;;;;;;;;;;;23.42;66.31;100254.13;5009394;28;1594;-40
2021/07/31 08:29:12;;;;;;;;;;;;;;;23.30;66.15;100243.91;5012232;28;1858;-39
2021/07/31 08:34:22;;;;;;;;;;;;;;;23.30;66.70;100250.16;4995964;28;2428;-43
2021/07/31 08:36:51;;;;;;;;;;;;;;;23.49;65.73;100245.34;4998602;28;1641;-42
2021/07/31 08:39:22;;;;;;;;;;;;;;;23.43;65.88;100242.31;4999677;28;1387;-42
2021/07/31 08:43:46;;;;;;;;;;;;;;;23.76;66.03;100223.22;5102138;27;1712;-45
2021/07/31 08:46:19;;;;;;;;;;;;;;;23.78;66.07;100236.56;5084326;28;1844;-45
2021/07/31 08:48:50;;;;;;;;;;;;;;;23.62;65.29;100227.53;5087504;28;1926;-43
2021/07/31 08:51:19;;;;;;;;;;;;;;;23.53;65.57;100233.16;5090072;28;1907;-43
2021/07/31 08:53:47;;;;;;;;;;;;;;;23.61;64.73;100225.00;5088110;28;1924;-43
2021/07/31 08:56:13;;;;;;;;;;;;;;;23.52;64.67;100220.69;5088074;28;1767;-46
2021/07/31 08:58:41;;;;;;;;;;;;;;;23.50;64.66;100218.16;5069775;28;1000;-44
2021/07/31 09:01:11;;;;;;;;;;;;;;;23.42;64.27;100210.13;5080468;28;1747;-44
2021/07/31 09:03:55;;;;;;;;;;;;;;;23.54;64.70;100221.34;5072685;28;1905;-43
2021/07/31 09:06:28;;;;;;;;;;;;;;;23.41;63.55;100219.22;5088941;28;1078;-44
2021/07/31 09:09:03;;;;;;;;;;;;;;;23.54;63.31;100208.69;5084509;28;1923;-43
2021/07/31 09:11:32;;;;;;;;;;;;;;;23.53;63.91;100200.78;5086261;28;1758;-45
2021/07/31 09:14:09;;;;;;;;;;;;;;;24.13;64.10;100208.09;5085201;28;1703;-45
2021/07/31 09:16:40;;;;;;;;;;;;;;;24.60;63.43;100209.66;5083552;28;2033;-44
2021/07/31 09:19:11;;;;;;;;;;;;;;;24.94;62.33;100210.94;5080211;28;1779;-44
2021/07/31 09:21:40;;;;;;;;;;;;;;;25.14;63.31;100199.53;5087313;28;1976;-46
2021/07/31 09:24:18;;;;;;;;;;;;;;;25.35;64.36;100207.75;5078085;28;1487;-45
2021/07/31 09:26:48;;;;;;;;;;;;;;;25.32;64.53;100191.88;5072444;28;1755;-46
2021/07/31 09:29:18;;;;;;;;;;;;;;;25.05;66.92;100206.94;5071553;28;1781;-45
2021/07/31 09:31:51;;;;;;;;;;;;;;;24.01;67.02;100214.94;5073230;28;1640;-45
2021/07/31 09:34:33;;;;;;;;;;;;;;;23.22;65.77;100204.34;5084815;28;1865;-45
2021/07/31 09:37:29;;;;;;;;;;;;;;;22.90;64.37;100205.28;5082186;28;1605;-44
2021/07/31 09:42:44;;;;;;;;;;;;;;;22.49;62.38;100214.34;5096052;28;1981;-45
2021/07/31 09:45:14;;;;;;;;;;;;;;;22.18;62.27;100201.59;5107767;28;2375;-45
2021/07/31 09:47:58;;;;;;;;;;;;;;;22.27;61.72;100193.53;5108091;28;1926;-44
2021/07/31 09:50:41;;;;;;;;;;;;;;;22.31;61.02;100211.03;5103022;28;1311;-44
2021/07/31 09:53:18;;;;;;;;;;;;;;;22.16;61.93;100203.63;5091094;28;1752;-44
2021/07/31 09:55:47;;;;;;;;;;;;;;;22.31;61.87;100184.09;5094971;28;1066;-45
2021/07/31 09:58:14;;;;;;;;;;;;;;;22.30;61.79;100183.22;5093302;28;1955;-44
2021/07/31 10:00:43;;;;;;;;;;;;;;;22.39;61.89;100179.53;5086197;28;1697;-45
2021/07/31 10:03:14;;;;;;;;;;;;;;;22.37;61.43;100194.19;5089816;28;1989;-45
2021/07/31 10:05:51;;;;;;;;;;;;;;;22.23;62.13;100177.66;5090175;28;1892;-45
2021/07/31 10:08:21;;;;;;;;;;;;;;;22.21;61.15;100174.31;5080229;28;1677;-44
2021/07/31 10:10:49;;;;;;;;;;;;;;;22.48;60.97;100174.94;5081478;28;1652;-45
2021/07/31 10:13:16;;;;;;;;;;;;;;;23.49;60.48;100181.41;5091192;28;1625;-46
2021/07/31 10:15:42;;;;;;;;;;;;;;;24.20;59.30;100173.06;5086835;28;1684;-46
2021/07/31 10:18:10;;;;;;;;;;;;;;;24.57;57.99;100172.19;5084374;28;1513;-49
2021/07/31 10:20:37;;;;;;;;;;;;;;;24.82;58.84;100163.78;5082369;28;1097;-40
2021/07/31 10:23:03;;;;;;;;;;;;;;;24.93;58.55;100160.59;5087522;28;2019;-40
2021/07/31 10:25:34;;;;;;;;;;;;;;;25.08;57.83;100163.25;5085448;28;1102;-40
2021/07/31 10:28:16;;;;;;;;;;;;;;;24.18;62.31;100159.75;5090514;28;2124;-45
2021/07/31 10:30:44;;;;;;;;;;;;;;;23.37;62.95;100164.78;5080178;28;1600;-47
2021/07/31 10:33:34;;;;;;;;;;;;;;;22.94;63.17;100158.09;5081249;28;1853;-46
2021/07/31 10:36:15;;;;;;;;;;;;;;;22.71;64.10;100169.66;5091345;28;1637;-44
2021/07/31 10:38:43;;;;;;;;;;;;;;;22.73;63.16;100177.56;5079400;28;2107;-45
2021/07/31 10:41:39;;;;;;;;;;;;;;;22.82;61.92;100149.56;5078295;28;1770;-44
2021/07/31 10:44:10;;;;;;;;;;;;;;;22.79;61.45;100166.91;5080653;28;1905;-44
2021/07/31 10:46:39;;;;;;;;;;;;;;;23.55;59.86;100166.34;5083597;28;1727;-44
2021/07/31 10:49:21;;;;;;;;;;;;;;;24.18;58.76;100167.84;5093190;28;1952;-45
2021/07/31 10:51:48;;;;;;;;;;;;;;;24.60;57.38;100160.16;5092002;28;1675;-45
2021/07/31 10:54:15;;;;;;;;;;;;;;;24.84;56.76;100139.25;5091152;28;1631;-45
2021/07/31 10:57:01;;;;;;;;;;;;;;;25.00;56.66;100149.84;5077158;28;1819;-44
2021/07/31 10:59:31;;;;;;;;;;;;;;;25.12;57.87;100147.50;5089644;28;1169;-44
2021/07/31 11:02:20;;;;;;;;;;;;;;;25.20;57.88;100155.50;5081306;28;1900;-44
2021/07/31 11:05:00;;;;;;;;;;;;;;;24.75;62.26;100144.78;5091006;28;1791;-44
2021/07/31 11:07:29;;;;;;;;;;;;;;;23.72;62.41;100142.78;5086657;28;1948;-45
2021/07/31 11:10:14;;;;;;;;;;;;;;;23.65;63.56;100160.72;5087445;28;1773;-45
2021/07/31 11:12:55;;;;;;;;;;;;;;;23.48;64.52;100149.22;5092964;28;1539;-44
2021/07/31 11:15:24;;;;;;;;;;;;;;;23.27;64.90;100145.28;5074701;28;1781;-43
2021/07/31 11:17:57;;;;;;;;;;;;;;;23.23;65.95;100144.81;5081158;28;1714;-44
2021/07/31 11:20:28;;;;;;;;;;;;;;;22.97;64.60;100144.25;5090884;28;1521;-44
2021/07/31 11:22:58;;;;;;;;;;;;;;;22.83;65.17;100140.47;5093445;28;1908;-44
2021/07/31 11:25:28;;;;;;;;;;;;;;;22.65;63.77;100124.53;5094160;28;1081;-44
2021/07/31 11:28:00;;;;;;;;;;;;;;;22.46;63.35;100136.56;5081725;28;1975;-44
2021/07/31 11:30:40;;;;;;;;;;;;;;;22.50;62.64;100132.53;5086543;28;1748;-44
2021/07/31 11:33:15;;;;;;;;;;;;;;;22.40;61.94;100119.25;5089292;28;2066;-43
2021/07/31 11:35:44;;;;;;;;;;;;;;;22.28;61.18;100130.56;5086950;28;1772;-43
2021/07/31 11:38:30;;;;;;;;;;;;;;;22.29;60.83;100132.25;5092650;28;1988;-43
2021/07/31 11:41:00;;;;;;;;;;;;;;;22.37;61.12;100124.16;5092072;28;1699;-42
2021/07/31 11:43:28;;;;;;;;;;;;;;;22.27;61.17;100140.50;5092096;28;1909;-43
2021/07/31 11:45:55;;;;;;;;;;;;;;;22.31;60.82;100132.91;5092207;28;1633;-43
2021/07/31 11:48:24;;;;;;;;;;;;;;;22.31;59.58;100114.91;5089528;28;1487;-43
2021/07/31 11:51:06;;;;;;;;;;;;;;;22.17;59.84;100118.28;5091639;28;1266;-44
2021/07/31 11:53:32;;;;;;;;;;;;;;;22.17;59.68;100123.66;5089261;28;1672;-43
2021/07/31 11:56:12;;;;;;;;;;;;;;;22.08;58.63;100109.34;5092254;28;1965;-43
2021/07/31 11:58:41;;;;;;;;;;;;;;;21.92;58.44;100112.91;5082940;28;1748;-44
2021/07/31 12:01:08;;;;;;;;;;;;;;;21.97;58.18;100117.81;5091928;28;1953;-44
2021/07/31 12:03:51;;;;;;;;;;;;;;;22.01;58.70;100121.84;5085633;28;1901;-44
2021/07/31 12:06:32;;;;;;;;;;;;;;;22.19;57.88;100113.56;5086749;28;1542;-43
2021/07/31 12:09:01;;;;;;;;;;;;;;;22.02;58.37;100101.97;5084363;28;1733;-42
2021/07/31 12:11:54;;;;;;;;;;;;;;;22.01;58.08;100103.84;5083205;28;1948;-43
2021/07/31 12:14:52;;;;;;;;;;;;;;;21.95;58.05;100104.53;5086719;28;1501;-43
2021/07/31 12:17:28;;;;;;;;;;;;;;;21.95;57.84;100101.00;5087612;28;2052;-43
2021/07/31 12:19:56;;;;;;;;;;;;;;;21.94;58.25;100097.44;5088253;28;1431;-44
2021/07/31 12:22:25;;;;;;;;;;;;;;;21.92;57.97;100095.94;5091375;28;1902;-45
2021/07/31 12:25:13;;;;;;;;;;;;;;;21.73;58.44;100097.16;5089266;28;1512;-43
2021/07/31 12:28:02;;;;;;;;;;;;;;;21.88;58.33;100108.06;5073084;28;1688;-43
2021/07/31 12:30:30;;;;;;;;;;;;;;;21.89;58.19;100099.00;5082301;28;2072;-45
2021/07/31 12:33:05;;;;;;;;;;;;;;;21.76;57.74;100086.88;5082277;28;1979;-44
2021/07/31 12:35:39;;;;;;;;;;;;;;;21.77;57.68;100109.25;5087388;28;1710;-43
2021/07/31 12:38:10;;;;;;;;;;;;;;;21.71;57.78;100091.94;5089212;28;1937;-44
2021/07/31 12:40:37;;;;;;;;;;;;;;;21.69;57.51;100106.59;5091730;28;1745;-44
2021/07/31 12:43:06;;;;;;;;;;;;;;;21.71;57.56;100107.25;5088334;28;1988;-44
2021/07/31 12:45:35;;;;;;;;;;;;;;;21.80;57.46;100098.16;5079862;28;1901;-43
2021/07/31 12:48:06;;;;;;;;;;;;;;;21.92;58.08;100096.78;5091922;28;1751;-43
2021/07/31 12:50:35;;;;;;;;;;;;;;;22.14;59.13;100087.13;5093570;28;1110;-44
2021/07/31 12:53:02;;;;;;;;;;;;;;;22.21;59.53;100096.22;5084710;28;2202;-43
2021/07/31 12:55:51;;;;;;;;;;;;;;;22.34;59.46;100093.00;5076501;28;1434;-44
2021/07/31 12:58:20;;;;;;;;;;;;;;;22.58;60.67;100093.91;5091431;28;1998;-45
2021/07/31 13:00:48;;;;;;;;;;;;;;;22.62;61.84;100088.00;5090902;28;1631;-44
2021/07/31 13:03:18;;;;;;;;;;;;;;;22.60;62.64;100098.13;5081226;28;1906;-44
2021/07/31 13:05:45;;;;;;;;;;;;;;;22.54;63.00;100087.19;5085678;28;1622;-44
2021/07/31 13:08:14;;;;;;;;;;;;;;;22.83;62.54;100083.84;5088654;28;1621;-45
2021/07/31 13:10:43;;;;;;;;;;;;;;;22.97;62.59;100091.16;5084452;28;1828;-44
2021/07/31 13:13:11;;;;;;;;;;;;;;;23.15;62.26;100092.78;5089341;28;1785;-44
2021/07/31 13:15:40;;;;;;;;;;;;;;;23.17;62.39;100082.66;5088987;28;1972;-45
2021/07/31 13:18:07;;;;;;;;;;;;;;;23.25;62.66;100084.44;5084143;28;1679;-44
2021/07/31 13:20:46;;;;;;;;;;;;;;;23.21;62.78;100092.06;5083026;28;1162;-43